createdAt,value
2018-05-08T00:01:08.679Z,16.20
2018-05-08T00:03:11.830Z,16.10
2018-05-08T00:05:14.975Z,16.10
2018-05-08T00:07:19.167Z,16.00
2018-05-08T00:09:22.316Z,16.00
2018-05-08T00:11:25.535Z,16.00
2018-05-08T00:13:28.679Z,15.90
2018-05-08T00:15:31.824Z,15.90
2018-05-08T00:17:35.769Z,15.80
2018-05-08T00:19:39.085Z,15.80
2018-05-08T00:21:42.234Z,15.80
2018-05-08T00:23:45.406Z,15.80
2018-05-08T00:25:48.551Z,15.70
2018-05-08T00:27:51.743Z,15.70
2018-05-08T00:29:54.891Z,15.70
2018-05-08T00:31:59.955Z,15.60
2018-05-08T00:34:03.869Z,15.60
2018-05-08T00:36:07.811Z,15.60
2018-05-08T00:38:11.713Z,15.60
2018-05-08T00:40:14.911Z,15.60
2018-05-08T00:42:19.961Z,15.50
2018-05-08T00:44:24.642Z,15.50
2018-05-08T00:46:28.546Z,15.50
2018-05-08T00:48:31.712Z,15.50
2018-05-08T00:50:34.849Z,15.50
2018-05-08T00:52:38.028Z,15.50
2018-05-08T00:54:59.525Z,15.40
2018-05-08T00:57:02.667Z,15.40
2018-05-08T00:59:05.927Z,15.40
2018-05-08T01:01:10.375Z,15.40
2018-05-08T01:03:14.289Z,15.30
2018-05-08T01:05:19.899Z,15.30
2018-05-08T01:07:23.425Z,15.30
2018-05-08T01:09:26.922Z,15.30
2018-05-08T01:11:30.642Z,15.30
2018-05-08T01:13:34.159Z,15.20
2018-05-08T01:15:37.675Z,15.20
2018-05-08T01:17:41.367Z,15.20
2018-05-08T01:19:45.289Z,15.20
2018-05-08T01:21:49.563Z,15.10
2018-05-08T01:23:53.583Z,15.10
2018-05-08T01:25:57.208Z,15.10
2018-05-08T01:28:01.761Z,15.10
2018-05-08T01:30:06.354Z,15.00
2018-05-08T01:32:11.033Z,15.00
2018-05-08T01:34:14.197Z,15.00
2018-05-08T01:36:18.632Z,15.00
2018-05-08T01:38:22.589Z,15.00
2018-05-08T01:40:26.334Z,15.00
2018-05-08T01:42:29.512Z,14.90
2018-05-08T01:44:32.693Z,14.90
2018-05-08T01:46:36.947Z,14.90
2018-05-08T01:48:40.779Z,14.80
2018-05-08T01:50:44.303Z,14.90
2018-05-08T01:52:47.986Z,14.80
2018-05-08T01:54:52.262Z,14.80
2018-05-08T01:56:55.779Z,14.80
2018-05-08T01:59:00.569Z,14.70
2018-05-08T02:01:06.667Z,14.70
2018-05-08T02:03:10.831Z,14.60
2018-05-08T02:05:15.462Z,14.60
2018-05-08T02:07:20.130Z,14.60
2018-05-08T02:09:23.311Z,14.60
2018-05-08T02:11:26.462Z,14.50
2018-05-08T02:13:29.612Z,14.50
2018-05-08T02:15:32.783Z,14.40
2018-05-08T02:17:35.927Z,14.40
2018-05-08T02:19:40.190Z,14.40
2018-05-08T02:21:43.359Z,14.30
2018-05-08T02:23:46.518Z,14.30
2018-05-08T02:25:49.767Z,14.30
2018-05-08T02:27:52.898Z,14.30
2018-05-08T02:29:56.046Z,14.30
2018-05-08T02:32:00.346Z,14.20
2018-05-08T02:34:03.537Z,14.20
2018-05-08T02:36:06.691Z,14.20
2018-05-08T02:38:10.251Z,14.20
2018-05-08T02:40:13.406Z,14.10
2018-05-08T02:42:16.552Z,14.10
2018-05-08T02:44:20.453Z,14.10
2018-05-08T02:46:23.601Z,14.10
2018-05-08T02:48:27.504Z,14.00
2018-05-08T02:50:30.678Z,14.00
2018-05-08T02:52:33.883Z,14.00
2018-05-08T02:54:36.991Z,14.00
2018-05-08T02:56:40.510Z,14.00
2018-05-08T02:58:43.690Z,14.00
2018-05-08T03:00:46.867Z,14.00
2018-05-08T03:02:50.775Z,13.90
2018-05-08T03:04:53.933Z,13.90
2018-05-08T03:06:57.119Z,13.90
2018-05-08T03:09:00.781Z,13.90
2018-05-08T03:11:03.923Z,13.80
2018-05-08T03:13:07.089Z,13.80
2018-05-08T03:15:10.271Z,13.80
2018-05-08T03:17:13.415Z,13.80
2018-05-08T03:19:16.560Z,13.80
2018-05-08T03:21:20.867Z,13.70
2018-05-08T03:23:24.027Z,13.70
2018-05-08T03:25:27.228Z,13.70
2018-05-08T03:27:31.167Z,13.70
2018-05-08T03:29:34.330Z,13.60
2018-05-08T03:31:37.477Z,13.60
2018-05-08T03:33:40.898Z,13.60
2018-05-08T03:35:44.095Z,13.50
2018-05-08T03:37:47.247Z,13.60
2018-05-08T03:39:50.398Z,13.50
2018-05-08T03:41:54.335Z,13.50
2018-05-08T03:43:58.240Z,13.40
2018-05-08T03:46:01.379Z,13.40
2018-05-08T03:48:04.551Z,13.40
2018-05-08T03:50:09.204Z,13.40
2018-05-08T03:52:13.151Z,13.30
2018-05-08T03:54:16.328Z,13.30
2018-05-08T03:56:22.106Z,13.30
2018-05-08T03:58:26.022Z,13.30
2018-05-08T04:00:48.370Z,13.20
2018-05-08T04:05:51.087Z,13.20
2018-05-08T04:08:13.718Z,13.20
2018-05-08T04:10:18.203Z,13.20
2018-05-08T04:12:22.694Z,13.20
2018-05-08T04:14:27.987Z,13.10
2018-05-08T04:16:32.922Z,13.10
2018-05-08T04:18:38.224Z,13.10
2018-05-08T04:20:42.867Z,13.00
2018-05-08T04:22:47.339Z,13.10
2018-05-08T04:24:51.648Z,13.00
2018-05-08T04:26:56.277Z,13.00
2018-05-08T04:29:00.920Z,13.00
2018-05-08T04:31:05.191Z,13.00
2018-05-08T04:33:10.763Z,13.00
2018-05-08T04:35:16.013Z,13.00
2018-05-08T04:37:21.224Z,13.00
2018-05-08T04:39:25.660Z,13.00
2018-05-08T04:41:28.839Z,13.00
2018-05-08T04:43:31.983Z,13.00
2018-05-08T04:45:35.138Z,13.00
2018-05-08T04:47:39.490Z,13.00
2018-05-08T04:49:42.630Z,13.00
2018-05-08T04:51:45.775Z,13.00
2018-05-08T04:53:48.948Z,13.00
2018-05-08T04:55:52.151Z,13.00
2018-05-08T04:57:55.259Z,13.00
2018-05-08T04:59:58.423Z,13.00
2018-05-08T05:02:01.743Z,13.00
2018-05-08T05:04:04.928Z,13.00
2018-05-08T05:06:08.839Z,13.10
2018-05-08T05:08:11.988Z,13.10
2018-05-08T05:10:15.166Z,13.10
2018-05-08T05:12:20.027Z,13.10
2018-05-08T05:14:23.962Z,13.10
2018-05-08T05:16:27.132Z,13.10
2018-05-08T05:18:30.307Z,13.10
2018-05-08T05:20:34.098Z,13.10
2018-05-08T05:22:38.004Z,13.20
2018-05-08T05:24:42.015Z,13.10
2018-05-08T05:26:45.192Z,13.20
2018-05-08T05:28:48.342Z,13.20
2018-05-08T05:30:52.281Z,13.30
2018-05-08T05:32:56.532Z,13.30
2018-05-08T05:34:59.801Z,13.20
2018-05-08T05:37:02.951Z,13.30
2018-05-08T05:39:06.979Z,13.40
2018-05-08T05:41:10.124Z,13.40
2018-05-08T05:43:13.290Z,13.40
2018-05-08T05:45:16.447Z,13.50
2018-05-08T05:47:19.628Z,13.60
2018-05-08T05:49:22.775Z,13.60
2018-05-08T05:51:25.947Z,13.70
2018-05-08T05:53:29.091Z,13.80
2018-05-08T05:55:32.240Z,13.90
2018-05-08T05:57:35.436Z,14.00
2018-05-08T05:59:39.356Z,14.20
2018-05-08T06:01:43.295Z,14.20
2018-05-08T06:03:46.451Z,14.20
2018-05-08T06:05:49.656Z,14.30
2018-05-08T06:07:53.436Z,14.40
2018-05-08T06:09:56.887Z,14.50
2018-05-08T06:12:00.083Z,14.60
2018-05-08T06:14:03.241Z,14.70
2018-05-08T06:16:07.157Z,14.90
2018-05-08T06:18:10.339Z,14.80
2018-05-08T06:20:13.517Z,15.00
2018-05-08T06:22:16.693Z,15.00
2018-05-08T06:24:19.845Z,15.20
2018-05-08T06:26:23.171Z,15.30
2018-05-08T06:28:27.680Z,15.30
2018-05-08T06:30:32.846Z,15.50
2018-05-08T06:32:35.983Z,15.50
2018-05-08T06:34:39.118Z,15.60
2018-05-08T06:36:43.055Z,15.80
2018-05-08T06:38:46.966Z,15.90
2018-05-08T06:40:50.111Z,15.90
2018-05-08T06:42:53.287Z,16.00
2018-05-08T06:44:57.194Z,16.20
2018-05-08T06:47:00.351Z,16.20
2018-05-08T06:49:03.537Z,16.30
2018-05-08T06:51:07.482Z,16.50
2018-05-08T06:53:10.627Z,16.50
2018-05-08T06:55:13.770Z,16.70
2018-05-08T06:57:17.706Z,16.90
2018-05-08T06:59:21.629Z,17.00
2018-05-08T07:01:25.603Z,17.10
2018-05-08T07:03:28.946Z,17.10
2018-05-08T07:05:32.092Z,17.20
2018-05-08T07:07:35.266Z,17.30
2018-05-08T07:09:39.211Z,17.60
2018-05-08T07:11:43.122Z,17.70
2018-05-08T07:13:47.059Z,17.80
2018-05-08T07:15:51.065Z,18.00
2018-05-08T07:17:54.228Z,17.90
2018-05-08T07:19:57.407Z,18.10
2018-05-08T07:22:01.321Z,18.40
2018-05-08T07:24:05.305Z,18.50
2018-05-08T07:26:08.440Z,18.50
2018-05-08T07:28:11.848Z,18.70
2018-05-08T07:30:16.368Z,18.80
2018-05-08T07:32:19.551Z,18.90
2018-05-08T07:34:23.727Z,19.10
2018-05-08T07:36:28.230Z,19.30
2018-05-08T07:38:32.018Z,19.50
2018-05-08T07:40:35.963Z,19.80
2018-05-08T07:42:39.171Z,19.80
2018-05-08T07:44:42.327Z,20.00
2018-05-08T07:46:45.506Z,20.20
2018-05-08T07:48:48.648Z,20.40
2018-05-08T07:50:51.920Z,20.60
2018-05-08T07:52:55.101Z,20.80
2018-05-08T07:54:58.283Z,21.00
2018-05-08T07:57:01.429Z,21.20
2018-05-08T07:59:04.575Z,21.30
2018-05-08T08:01:07.748Z,21.60
2018-05-08T08:03:12.055Z,21.80
2018-05-08T08:05:15.978Z,22.10
2018-05-08T08:07:19.918Z,22.30
2018-05-08T08:09:23.091Z,22.30
2018-05-08T08:11:27.744Z,22.60
2018-05-08T08:13:32.813Z,22.90
2018-05-08T08:15:36.758Z,23.10
2018-05-08T08:17:39.947Z,23.10
2018-05-08T08:19:43.100Z,23.30
2018-05-08T08:21:46.242Z,23.40
2018-05-08T08:23:49.652Z,23.60
2018-05-08T08:25:52.752Z,23.80
2018-05-08T08:27:55.915Z,23.90
2018-05-08T08:29:59.100Z,24.10
2018-05-08T08:32:02.267Z,24.30
2018-05-08T08:34:05.510Z,24.40
2018-05-08T08:36:09.460Z,24.70
2018-05-08T08:38:12.608Z,24.70
2018-05-08T08:40:15.751Z,24.90
2018-05-08T08:42:19.727Z,25.10
2018-05-08T08:44:22.909Z,25.10
2018-05-08T08:46:26.161Z,25.30
2018-05-08T08:48:30.030Z,25.50
2018-05-08T08:50:33.963Z,25.60
2018-05-08T08:52:37.143Z,25.60
2018-05-08T08:54:41.079Z,25.80
2018-05-08T08:56:44.991Z,26.00
2018-05-08T08:58:48.163Z,25.90
2018-05-08T09:00:53.970Z,26.10
2018-05-08T09:02:57.112Z,26.20
2018-05-08T09:05:00.293Z,26.30
2018-05-08T09:07:04.248Z,26.50
2018-05-08T09:09:07.434Z,26.50
2018-05-08T09:11:12.500Z,26.70
2018-05-08T09:13:15.655Z,26.70
2018-05-08T09:15:18.813Z,26.80
2018-05-08T09:17:21.999Z,26.90
2018-05-08T09:19:25.956Z,27.10
2018-05-08T09:21:29.584Z,27.00
2018-05-08T09:23:33.244Z,27.10
2018-05-08T09:25:37.518Z,27.20
2018-05-08T09:27:41.673Z,27.30
2018-05-08T09:29:44.822Z,27.40
2018-05-08T09:31:48.016Z,27.50
2018-05-08T09:33:51.194Z,27.60
2018-05-08T09:35:54.384Z,27.60
2018-05-08T09:37:57.556Z,27.70
2018-05-08T09:40:00.739Z,27.80
2018-05-08T09:42:03.931Z,27.80
2018-05-08T09:44:07.118Z,27.90
2018-05-08T09:46:10.280Z,28.00
2018-05-08T09:48:13.457Z,28.10
2018-05-08T09:50:17.242Z,28.10
2018-05-08T09:52:21.154Z,28.20
2018-05-08T09:54:24.333Z,28.20
2018-05-08T09:56:28.202Z,28.30
2018-05-08T09:58:33.247Z,28.40
2018-05-08T10:00:37.165Z,28.50
2018-05-08T10:02:42.650Z,28.50
2018-05-08T10:04:46.705Z,28.60
2018-05-08T10:06:50.486Z,28.60
2018-05-08T10:08:54.436Z,28.80
2018-05-08T10:10:57.623Z,28.70
2018-05-08T10:13:01.542Z,28.90
2018-05-08T10:15:05.481Z,29.00
2018-05-08T10:17:08.663Z,29.00
2018-05-08T10:19:11.831Z,29.10
2018-05-08T10:21:14.977Z,29.10
2018-05-08T10:23:18.154Z,29.20
2018-05-08T10:25:21.322Z,29.20
2018-05-08T10:27:24.471Z,29.30
2018-05-08T10:29:27.684Z,29.30
2018-05-08T10:31:30.830Z,29.40
2018-05-08T10:33:34.735Z,29.50
2018-05-08T10:35:37.915Z,29.50
2018-05-08T10:37:41.070Z,29.50
2018-05-08T10:39:45.019Z,29.60
2018-05-08T10:41:48.191Z,29.60
2018-05-08T10:43:51.344Z,29.70
2018-05-08T10:45:55.316Z,29.80
2018-05-08T10:47:58.504Z,29.80
2018-05-08T10:50:01.653Z,29.80
2018-05-08T10:52:05.569Z,29.90
2018-05-08T10:54:08.750Z,29.90
2018-05-08T10:56:11.899Z,30.00
2018-05-08T10:58:15.859Z,30.00
2018-05-08T11:00:19.012Z,30.00
2018-05-08T11:02:22.196Z,30.10
2018-05-08T11:04:25.367Z,30.10
2018-05-08T11:06:28.820Z,30.20
2018-05-08T11:08:32.010Z,30.30
2018-05-08T11:10:35.158Z,30.30
2018-05-08T11:12:38.331Z,30.40
2018-05-08T11:14:41.507Z,30.50
2018-05-08T11:16:45.454Z,30.60
2018-05-08T11:18:48.627Z,30.60
2018-05-08T11:20:53.846Z,30.70
2018-05-08T11:22:57.024Z,30.70
2018-05-08T11:25:00.203Z,30.80
2018-05-08T11:27:04.605Z,30.90
2018-05-08T11:29:07.772Z,30.80
2018-05-08T11:31:10.968Z,30.90
2018-05-08T11:33:14.213Z,30.90
2018-05-08T11:35:17.343Z,31.00
2018-05-08T11:37:20.486Z,31.00
2018-05-08T11:39:24.511Z,31.10
2018-05-08T11:41:27.599Z,31.10
2018-05-08T11:43:30.783Z,31.20
2018-05-08T11:45:33.984Z,31.20
2018-05-08T11:47:37.895Z,31.40
2018-05-08T11:49:41.044Z,31.40
2018-05-08T11:51:44.240Z,31.40
2018-05-08T11:53:47.401Z,31.50
2018-05-08T11:55:51.347Z,31.60
2018-05-08T11:57:54.526Z,31.60
2018-05-08T11:59:58.470Z,31.70
2018-05-08T12:02:02.132Z,31.70
2018-05-08T12:04:06.241Z,31.80
2018-05-08T12:06:09.439Z,31.80
2018-05-08T12:08:12.624Z,31.80
2018-05-08T12:10:15.817Z,31.90
2018-05-08T12:12:19.772Z,32.00
2018-05-08T12:14:22.973Z,32.00
2018-05-08T12:16:26.171Z,32.00
2018-05-08T12:18:29.324Z,32.00
2018-05-08T12:20:33.565Z,32.10
2018-05-08T12:22:36.783Z,32.10
2018-05-08T12:24:39.937Z,32.10
2018-05-08T12:26:43.149Z,32.20
2018-05-08T12:28:46.727Z,32.20
2018-05-08T12:30:50.610Z,32.30
2018-05-08T12:32:53.814Z,32.30
2018-05-08T12:34:57.009Z,32.30
2018-05-08T12:37:00.156Z,32.40
2018-05-08T12:39:03.311Z,32.40
2018-05-08T12:41:06.527Z,32.50
2018-05-08T12:43:10.811Z,32.50
2018-05-08T12:45:13.980Z,32.50
2018-05-08T12:47:17.704Z,32.50
2018-05-08T12:49:20.863Z,32.50
2018-05-08T12:51:24.060Z,32.50
2018-05-08T12:53:27.220Z,32.50
2018-05-08T12:55:32.375Z,32.50
2018-05-08T12:57:35.374Z,32.60
2018-05-08T12:59:38.543Z,32.60
2018-05-08T13:01:41.727Z,32.60
2018-05-08T13:03:44.904Z,32.80
2018-05-08T13:05:49.025Z,32.80
2018-05-08T13:07:52.666Z,32.80
2018-05-08T13:09:55.839Z,32.90
2018-05-08T13:11:59.802Z,33.00
2018-05-08T13:14:02.987Z,32.90
2018-05-08T13:16:06.143Z,33.00
2018-05-08T13:18:10.939Z,33.10
2018-05-08T13:20:14.831Z,33.10
2018-05-08T13:22:18.012Z,33.10
2018-05-08T13:24:21.251Z,33.20
2018-05-08T13:26:24.372Z,33.20
2018-05-08T13:28:28.327Z,33.40
2018-05-08T13:30:31.493Z,33.30
2018-05-08T13:32:36.584Z,33.40
2018-05-08T13:34:39.735Z,33.40
2018-05-08T13:36:43.124Z,33.50
2018-05-08T13:38:47.034Z,33.60
2018-05-08T13:40:50.250Z,33.50
2018-05-08T13:42:53.527Z,33.60
2018-05-08T13:44:58.618Z,33.70
2018-05-08T13:47:01.800Z,33.70
2018-05-08T13:49:04.995Z,33.70
2018-05-08T13:51:08.922Z,33.70
2018-05-08T13:53:12.878Z,33.70
2018-05-08T13:55:16.100Z,33.60
2018-05-08T13:57:19.284Z,33.70
2018-05-08T13:59:22.461Z,33.60
2018-05-08T14:01:26.391Z,33.60
2018-05-08T14:03:30.336Z,33.60
2018-05-08T14:05:33.507Z,33.60
2018-05-08T14:07:36.811Z,33.60
2018-05-08T14:09:40.007Z,33.60
2018-05-08T14:11:43.168Z,33.50
2018-05-08T14:13:47.126Z,33.60
2018-05-08T14:15:50.291Z,33.50
2018-05-08T14:17:54.343Z,33.60
2018-05-08T14:19:58.385Z,33.60
2018-05-08T14:22:01.541Z,33.60
2018-05-08T14:24:04.738Z,33.60
2018-05-08T14:26:07.905Z,33.60
2018-05-08T14:28:11.062Z,33.60
2018-05-08T14:30:14.251Z,33.60
2018-05-08T14:32:18.527Z,33.70
2018-05-08T14:34:22.467Z,33.80
2018-05-08T14:36:25.618Z,33.80
2018-05-08T14:38:28.869Z,33.80
2018-05-08T14:40:32.434Z,33.90
2018-05-08T14:42:35.594Z,34.00
2018-05-08T14:44:39.560Z,34.00
2018-05-08T14:46:42.725Z,34.00
2018-05-08T14:48:46.684Z,34.00
2018-05-08T14:50:50.619Z,34.00
2018-05-08T14:52:53.764Z,34.10
2018-05-08T14:54:56.943Z,34.10
2018-05-08T14:57:00.879Z,34.10
2018-05-08T14:59:04.066Z,34.10
2018-05-08T15:01:07.354Z,34.10
2018-05-08T15:03:10.512Z,34.10
2018-05-08T15:05:13.778Z,34.10
2018-05-08T15:07:16.960Z,34.10
2018-05-08T15:09:20.907Z,34.20
2018-05-08T15:11:24.087Z,34.20
2018-05-08T15:13:28.112Z,34.30
2018-05-08T15:15:32.042Z,34.40
2018-05-08T15:17:35.973Z,34.40
2018-05-08T15:19:39.903Z,34.40
2018-05-08T15:21:44.980Z,34.30
2018-05-08T15:23:48.207Z,34.30
2018-05-08T15:25:51.367Z,34.30
2018-05-08T15:27:55.305Z,34.10
2018-05-08T15:29:58.500Z,34.10
2018-05-08T15:32:02.426Z,34.00
2018-05-08T15:34:06.406Z,33.90
2018-05-08T15:36:09.592Z,33.90
2018-05-08T15:38:13.732Z,33.90
2018-05-08T15:40:16.908Z,33.80
2018-05-08T15:42:20.085Z,33.80
2018-05-08T15:44:23.263Z,33.80
2018-05-08T15:46:27.066Z,33.70
2018-05-08T15:48:30.223Z,33.70
2018-05-08T15:50:33.413Z,33.70
2018-05-08T15:52:36.562Z,33.70
2018-05-08T15:54:40.506Z,33.70
2018-05-08T15:56:43.661Z,33.60
2018-05-08T15:58:48.242Z,33.60
2018-05-08T16:00:52.364Z,33.60
2018-05-08T16:02:57.896Z,33.60
2018-05-08T16:05:01.072Z,33.60
2018-05-08T16:07:04.262Z,33.60
2018-05-08T16:09:08.360Z,33.50
2018-05-08T16:11:11.538Z,33.50
2018-05-08T16:13:14.723Z,33.40
2018-05-08T16:15:17.891Z,33.30
2018-05-08T16:17:21.799Z,33.10
2018-05-08T16:19:24.986Z,33.10
2018-05-08T16:21:28.255Z,33.00
2018-05-08T16:23:31.577Z,32.80
2018-05-08T16:25:35.006Z,32.70
2018-05-08T16:27:38.276Z,32.60
2018-05-08T16:29:41.498Z,32.50
2018-05-08T16:31:44.775Z,32.40
2018-05-08T16:33:48.809Z,32.30
2018-05-08T16:35:52.260Z,32.20
2018-05-08T16:37:55.432Z,32.10
2018-05-08T16:39:58.604Z,31.90
2018-05-08T16:42:01.764Z,31.80
2018-05-08T16:44:05.710Z,31.60
2018-05-08T16:46:08.907Z,31.60
2018-05-08T16:48:12.051Z,31.60
2018-05-08T16:50:15.234Z,31.50
2018-05-08T16:52:18.383Z,31.40
2018-05-08T16:54:21.526Z,31.30
2018-05-08T16:56:25.463Z,31.10
2018-05-08T16:58:29.480Z,31.00
2018-05-08T17:00:33.444Z,30.90
2018-05-08T17:02:36.595Z,30.90
2018-05-08T17:04:39.803Z,30.80
2018-05-08T17:06:42.954Z,30.70
2018-05-08T17:08:46.096Z,30.70
2018-05-08T17:10:49.274Z,30.60
2018-05-08T17:12:52.427Z,30.50
2018-05-08T17:14:55.570Z,30.40
2018-05-08T17:16:59.511Z,30.30
2018-05-08T17:19:02.659Z,30.20
2018-05-08T17:21:05.828Z,30.20
2018-05-08T17:23:09.034Z,30.10
2018-05-08T17:25:12.217Z,30.00
2018-05-08T17:27:15.375Z,29.90
2018-05-08T17:29:18.519Z,29.90
2018-05-08T17:31:21.712Z,29.80
2018-05-08T17:33:24.959Z,29.70
2018-05-08T17:35:29.178Z,29.60
2018-05-08T17:37:33.124Z,29.40
2018-05-08T17:39:36.268Z,29.40
2018-05-08T17:41:39.455Z,29.30
2018-05-08T17:43:42.608Z,29.20
2018-05-08T17:45:45.750Z,29.10
2018-05-08T17:47:49.226Z,29.00
2018-05-08T17:49:52.379Z,28.90
2018-05-08T17:51:55.565Z,28.90
2018-05-08T17:53:59.475Z,28.70
2018-05-08T17:56:02.659Z,28.60
2018-05-08T17:58:05.874Z,28.50
2018-05-08T18:00:09.350Z,28.50
2018-05-08T18:02:12.528Z,28.30
2018-05-08T18:04:15.940Z,28.20
2018-05-08T18:06:19.890Z,28.00
2018-05-08T18:08:23.040Z,28.00
2018-05-08T18:10:26.196Z,28.00
2018-05-08T18:12:29.464Z,27.90
2018-05-08T18:14:33.382Z,27.60
2018-05-08T18:16:36.563Z,27.60
2018-05-08T18:18:39.729Z,27.50
2018-05-08T18:20:42.903Z,27.40
2018-05-08T18:22:46.091Z,27.30
2018-05-08T18:24:49.526Z,27.20
2018-05-08T18:26:52.711Z,27.10
2018-05-08T18:28:56.426Z,27.00
2018-05-08T18:31:00.060Z,27.00
2018-05-08T18:33:03.758Z,26.90
2018-05-08T18:35:07.530Z,26.70
2018-05-08T18:37:12.482Z,26.60
2018-05-08T18:39:16.059Z,26.60
2018-05-08T18:41:19.778Z,26.50
2018-05-08T18:43:22.976Z,26.40
2018-05-08T18:45:26.145Z,26.30
2018-05-08T18:47:31.192Z,26.10
2018-05-08T18:49:34.417Z,26.10
2018-05-08T18:51:37.562Z,26.00
2018-05-08T18:53:40.743Z,25.80
2018-05-08T18:55:44.659Z,25.70
2018-05-08T18:57:47.970Z,25.70
2018-05-08T18:59:51.929Z,25.50
2018-05-08T19:01:55.109Z,25.50
2018-05-08T19:03:59.027Z,25.30
2018-05-08T19:06:03.883Z,25.30
2018-05-08T19:08:08.765Z,25.10
2018-05-08T19:10:12.867Z,25.10
2018-05-08T19:12:16.219Z,25.10
2018-05-08T19:14:19.368Z,25.00
2018-05-08T19:16:25.250Z,24.90
2018-05-08T19:18:35.737Z,24.70
2018-05-08T19:20:39.760Z,24.70
2018-05-08T19:22:43.715Z,24.60
2018-05-08T19:24:46.865Z,24.50
2018-05-08T19:26:50.954Z,24.50
2018-05-08T19:28:59.717Z,24.40
2018-05-08T19:31:02.866Z,24.30
2018-05-08T19:33:06.816Z,24.10
2018-05-08T19:35:17.150Z,24.10
2018-05-08T19:37:25.899Z,24.00
2018-05-08T19:39:30.939Z,23.90
2018-05-08T19:41:34.110Z,23.90
2018-05-08T19:43:37.295Z,23.80
2018-05-08T19:45:40.451Z,23.70
2018-05-08T19:47:43.622Z,23.60
2018-05-08T19:49:46.794Z,23.60
2018-05-08T19:51:51.833Z,23.40
2018-05-08T19:53:55.770Z,23.30
2018-05-08T19:55:59.692Z,23.20
2018-05-08T19:58:03.634Z,23.10
2018-05-08T20:00:06.807Z,23.10
2018-05-08T20:02:11.079Z,23.00
2018-05-08T20:04:14.247Z,22.90
2018-05-08T20:06:17.476Z,22.90
2018-05-08T20:08:20.660Z,22.80
2018-05-08T20:10:23.814Z,22.70
2018-05-08T20:12:26.962Z,22.60
2018-05-08T20:14:31.280Z,22.50
2018-05-08T20:16:34.446Z,22.40
2018-05-08T20:18:38.392Z,22.30
2018-05-08T20:20:41.565Z,22.30
2018-05-08T20:22:44.725Z,22.20
2018-05-08T20:24:47.895Z,22.10
2018-05-08T20:26:51.343Z,22.10
2018-05-08T20:28:54.511Z,21.90
2018-05-08T20:30:58.418Z,21.80
2018-05-08T20:33:01.563Z,21.80
2018-05-08T20:35:04.743Z,21.70
2018-05-08T20:37:07.923Z,21.70
2018-05-08T20:39:11.423Z,21.50
2018-05-08T20:41:14.579Z,21.50
2018-05-08T20:43:17.770Z,21.50
2018-05-08T20:45:20.923Z,21.40
2018-05-08T20:47:24.070Z,21.30
2018-05-08T20:49:27.253Z,21.30
2018-05-08T20:51:31.519Z,21.20
2018-05-08T20:53:34.687Z,21.10
2018-05-08T20:55:37.929Z,21.00
2018-05-08T20:57:41.031Z,21.00
2018-05-08T20:59:44.202Z,20.90
2018-05-08T21:01:47.372Z,20.80
2018-05-08T21:03:51.682Z,20.70
2018-05-08T21:05:55.610Z,20.60
2018-05-08T21:07:58.767Z,20.60
2018-05-08T21:10:02.716Z,20.50
2018-05-08T21:12:05.881Z,20.50
2018-05-08T21:14:09.052Z,20.50
2018-05-08T21:16:12.220Z,20.40
2018-05-08T21:18:16.147Z,20.30
2018-05-08T21:20:20.091Z,20.20
2018-05-08T21:22:23.303Z,20.20
2018-05-08T21:24:26.551Z,20.10
2018-05-08T21:26:30.401Z,20.00
2018-05-08T21:28:38.988Z,20.00
2018-05-08T21:30:47.841Z,20.00
2018-05-08T21:32:51.918Z,19.90
2018-05-08T21:34:55.094Z,19.90
2018-05-08T21:36:58.263Z,19.80
2018-05-08T21:39:01.536Z,19.80
2018-05-08T21:41:05.486Z,19.60
2018-05-08T21:43:08.765Z,19.60
2018-05-08T21:45:13.838Z,19.60
2018-05-08T21:47:16.978Z,19.60
2018-05-08T21:49:20.143Z,19.50
2018-05-08T21:51:24.278Z,19.40
2018-05-08T21:53:28.188Z,19.30
2018-05-08T21:55:33.251Z,19.30
2018-05-08T21:57:37.159Z,19.30
2018-05-08T21:59:40.327Z,19.20
2018-05-08T22:01:43.484Z,19.20
2018-05-08T22:03:47.400Z,19.10
2018-05-08T22:05:50.586Z,19.10
2018-05-08T22:07:53.739Z,19.10
2018-05-08T22:09:56.910Z,19.00
2018-05-08T22:12:00.055Z,19.10
2018-05-08T22:14:03.202Z,18.90
2018-05-08T22:16:07.238Z,18.90
2018-05-08T22:18:10.373Z,18.80
2018-05-08T22:20:14.341Z,18.80
2018-05-08T22:22:19.775Z,18.70
2018-05-08T22:24:23.749Z,18.70
2018-05-08T22:26:26.922Z,18.70
2018-05-08T22:28:30.067Z,18.70
2018-05-08T22:30:33.476Z,18.60
2018-05-08T22:32:37.391Z,18.50
2018-05-08T22:34:40.561Z,18.50
2018-05-08T22:36:44.516Z,18.50
2018-05-08T22:38:47.666Z,18.50
2018-05-08T22:40:50.854Z,18.40
2018-05-08T22:42:54.016Z,18.40
2018-05-08T22:44:57.963Z,18.40
2018-05-08T22:47:01.119Z,18.30
2018-05-08T22:49:04.305Z,18.30
2018-05-08T22:51:07.486Z,18.30
2018-05-08T22:53:10.660Z,18.30
2018-05-08T22:55:14.607Z,18.20
2018-05-08T22:57:17.755Z,18.20
2018-05-08T22:59:20.909Z,18.20
2018-05-08T23:01:24.850Z,18.10
2018-05-08T23:03:27.994Z,18.10
2018-05-08T23:05:31.168Z,18.00
2018-05-08T23:07:34.312Z,18.00
2018-05-08T23:09:37.483Z,18.00
2018-05-08T23:11:40.657Z,17.90
2018-05-08T23:13:49.590Z,17.90
2018-05-08T23:15:53.882Z,17.80
2018-05-08T23:17:57.031Z,17.80
2018-05-08T23:20:00.179Z,17.70
2018-05-08T23:22:03.358Z,17.70
2018-05-08T23:24:08.002Z,17.60
2018-05-08T23:26:11.186Z,17.60
2018-05-08T23:28:14.347Z,17.60
2018-05-08T23:30:17.514Z,17.50
2018-05-08T23:32:20.678Z,17.50
2018-05-08T23:34:23.830Z,17.40
2018-05-08T23:36:27.773Z,17.30
2018-05-08T23:38:34.530Z,17.30
2018-05-08T23:40:41.087Z,17.30
2018-05-08T23:42:48.173Z,17.30
2018-05-08T23:44:53.561Z,17.20
2018-05-08T23:46:59.765Z,17.20
2018-05-08T23:49:04.076Z,17.10
2018-05-08T23:51:08.716Z,17.10
2018-05-08T23:53:13.108Z,17.10
2018-05-08T23:55:17.874Z,17.00
2018-05-08T23:57:22.422Z,17.00
2018-05-08T23:59:27.333Z,17.00
